createdAt,value
2022-10-28T00:01:27.562Z,4.67
2022-10-28T00:03:57.009Z,4.30
2022-10-28T00:06:30.169Z,4.13
2022-10-28T00:08:57.842Z,4.80
2022-10-28T00:11:33.149Z,5.03
2022-10-28T00:14:02.302Z,4.93
2022-10-28T00:16:31.483Z,4.30
2022-10-28T00:18:59.649Z,4.40
2022-10-28T00:21:30.576Z,4.63
2022-10-28T00:23:57.862Z,4.00
2022-10-28T00:26:27.572Z,4.77
2022-10-28T00:28:56.922Z,4.20
2022-10-28T00:31:25.483Z,4.50
2022-10-28T00:33:52.736Z,4.80
2022-10-28T00:36:27.726Z,4.73
2022-10-28T00:38:55.776Z,4.43
2022-10-28T00:41:34.616Z,4.60
2022-10-28T00:44:22.997Z,4.30
2022-10-28T00:46:53.296Z,4.80
2022-10-28T00:49:29.159Z,4.30
2022-10-28T00:52:09.077Z,4.20
2022-10-28T00:54:37.903Z,4.50
2022-10-28T00:57:08.727Z,4.47
2022-10-28T00:59:37.664Z,4.40
2022-10-28T01:02:05.618Z,5.00
2022-10-28T01:04:32.493Z,4.90
2022-10-28T01:07:01.396Z,4.47
2022-10-28T01:09:27.959Z,4.97
2022-10-28T01:12:08.612Z,4.40
2022-10-28T01:14:44.415Z,4.83
2022-10-28T01:17:30.468Z,4.90
2022-10-28T01:20:18.562Z,4.60
2022-10-28T01:23:05.079Z,4.70
2022-10-28T01:25:53.375Z,4.27
2022-10-28T01:28:43.555Z,4.73
2022-10-28T01:31:22.202Z,4.87
2022-10-28T01:33:58.450Z,5.07
2022-10-28T01:36:36.962Z,5.37
2022-10-28T01:39:14.028Z,5.60
2022-10-28T01:42:05.732Z,5.60
2022-10-28T01:44:48.423Z,5.57
2022-10-28T01:47:23.167Z,4.80
2022-10-28T01:50:27.135Z,4.67
2022-10-28T01:52:57.338Z,4.97
2022-10-28T01:55:28.363Z,5.07
2022-10-28T01:57:59.391Z,5.30
2022-10-28T02:00:26.561Z,5.13
2022-10-28T02:02:55.993Z,4.63
2022-10-28T02:05:41.230Z,4.93
2022-10-28T02:08:28.938Z,5.13
2022-10-28T02:11:10.413Z,5.40
2022-10-28T02:13:48.764Z,5.20
2022-10-28T02:16:32.026Z,5.27
2022-10-28T02:19:23.031Z,5.00
2022-10-28T02:22:02.703Z,5.00
2022-10-28T02:24:57.031Z,5.37
2022-10-28T02:28:05.299Z,5.30
2022-10-28T02:30:40.551Z,5.13
2022-10-28T02:33:12.482Z,4.63
2022-10-28T02:35:56.104Z,4.97
2022-10-28T02:38:27.759Z,5.10
2022-10-28T02:40:59.862Z,5.23
2022-10-28T02:43:28.751Z,5.10
2022-10-28T02:45:59.849Z,5.10
2022-10-28T02:48:33.653Z,4.70
2022-10-28T02:51:10.369Z,5.20
2022-10-28T02:54:09.501Z,4.83
2022-10-28T02:56:52.031Z,5.00
2022-10-28T02:59:18.773Z,5.37
2022-10-28T03:01:45.363Z,5.07
2022-10-28T03:04:11.972Z,4.90
2022-10-28T03:06:38.498Z,5.07
2022-10-28T03:09:05.007Z,4.97
2022-10-28T03:11:31.587Z,5.03
2022-10-28T03:13:58.081Z,5.50
2022-10-28T03:16:26.631Z,5.13
2022-10-28T03:18:53.586Z,5.17
2022-10-28T03:21:20.327Z,5.00
2022-10-28T03:23:46.851Z,5.43
2022-10-28T03:26:13.449Z,5.23
2022-10-28T03:28:39.918Z,5.27
2022-10-28T03:31:06.482Z,4.70
2022-10-28T03:33:32.988Z,4.90
2022-10-28T03:35:59.450Z,5.30
2022-10-28T03:38:25.933Z,5.13
2022-10-28T03:40:52.495Z,5.30
2022-10-28T03:43:19.069Z,4.90
2022-10-28T03:45:45.832Z,5.00
2022-10-28T03:48:12.357Z,5.33
2022-10-28T03:50:38.923Z,5.20
2022-10-28T03:53:05.481Z,5.10
2022-10-28T03:55:32.360Z,5.13
2022-10-28T03:58:03.122Z,4.80
2022-10-28T04:00:30.266Z,5.73
2022-10-28T04:02:57.112Z,5.50
2022-10-28T04:05:23.742Z,4.73
2022-10-28T04:07:50.330Z,5.00
2022-10-28T04:10:16.917Z,5.03
2022-10-28T04:12:43.408Z,5.23
2022-10-28T04:15:09.949Z,4.90
2022-10-28T04:17:36.697Z,4.73
2022-10-28T04:20:03.707Z,4.97
2022-10-28T04:22:30.290Z,4.47
2022-10-28T04:24:56.760Z,4.90
2022-10-28T04:27:23.361Z,5.00
2022-10-28T04:29:50.095Z,5.17
2022-10-28T04:32:16.624Z,5.17
2022-10-28T04:34:43.090Z,5.20
2022-10-28T04:37:09.611Z,5.17
2022-10-28T04:39:36.130Z,4.90
2022-10-28T04:42:02.758Z,5.67
2022-10-28T04:44:29.263Z,5.50
2022-10-28T04:46:56.692Z,5.20
2022-10-28T04:49:23.184Z,5.07
2022-10-28T04:51:50.228Z,5.30
2022-10-28T04:54:16.912Z,5.20
2022-10-28T04:56:43.394Z,5.27
2022-10-28T04:59:09.932Z,5.77
2022-10-28T05:01:36.754Z,6.13
2022-10-28T05:04:03.685Z,5.50
2022-10-28T05:06:30.288Z,5.57
2022-10-28T05:08:56.817Z,5.17
2022-10-28T05:11:23.346Z,5.07
2022-10-28T05:13:49.952Z,5.93
2022-10-28T05:16:16.438Z,6.13
2022-10-28T05:21:14.422Z,5.37
2022-10-28T05:23:40.924Z,5.40
2022-10-28T05:26:07.428Z,5.43
2022-10-28T05:28:33.987Z,5.73
2022-10-28T05:31:00.478Z,5.53
2022-10-28T05:33:27.079Z,5.80
2022-10-28T05:35:53.589Z,5.40
2022-10-28T05:38:20.124Z,5.27
2022-10-28T05:40:46.634Z,4.90
2022-10-28T05:43:13.296Z,5.70
2022-10-28T05:45:39.846Z,4.73
2022-10-28T05:48:06.761Z,5.87
2022-10-28T05:50:33.795Z,5.30
2022-10-28T05:53:00.359Z,5.63
2022-10-28T05:55:29.619Z,5.83
2022-10-28T05:57:57.194Z,5.47
2022-10-28T06:00:25.775Z,5.50
2022-10-28T06:02:52.622Z,5.87
2022-10-28T06:05:19.476Z,5.60
2022-10-28T06:07:46.007Z,6.03
2022-10-28T06:10:12.543Z,4.80
2022-10-28T06:12:37.632Z,5.10
2022-10-28T06:15:04.647Z,5.40
2022-10-28T06:17:31.150Z,5.93
2022-10-28T06:19:57.667Z,5.87
2022-10-28T06:22:24.173Z,6.10
2022-10-28T06:24:50.626Z,5.80
2022-10-28T06:27:17.172Z,6.07
2022-10-28T06:29:43.623Z,6.03
2022-10-28T06:32:10.182Z,5.97
2022-10-28T06:34:37.853Z,5.70
2022-10-28T06:37:05.704Z,7.00
2022-10-28T06:39:32.940Z,6.20
2022-10-28T06:41:59.649Z,6.40
2022-10-28T06:44:26.277Z,5.93
2022-10-28T06:46:54.270Z,6.50
2022-10-28T06:49:20.828Z,6.37
2022-10-28T06:51:47.327Z,6.43
2022-10-28T06:54:13.829Z,6.60
2022-10-28T06:56:40.401Z,6.93
2022-10-28T06:59:07.758Z,7.20
2022-10-28T07:01:34.423Z,7.80
2022-10-28T07:04:01.080Z,7.30
2022-10-28T07:06:27.599Z,7.57
2022-10-28T07:08:54.108Z,7.80
2022-10-28T07:11:20.581Z,8.07
2022-10-28T07:13:49.059Z,7.77
2022-10-28T07:16:15.677Z,7.70
2022-10-28T07:18:42.187Z,8.17
2022-10-28T07:21:08.670Z,8.47
2022-10-28T07:23:35.239Z,8.77
2022-10-28T07:26:01.746Z,7.77
2022-10-28T07:28:29.428Z,8.40
2022-10-28T07:31:00.599Z,9.03
2022-10-28T07:33:27.145Z,8.33
2022-10-28T07:35:53.692Z,7.93
2022-10-28T07:38:20.242Z,7.40
2022-10-28T07:40:46.748Z,7.90
2022-10-28T07:43:13.457Z,7.47
2022-10-28T07:45:40.009Z,6.87
2022-10-28T07:48:06.969Z,7.40
2022-10-28T07:50:34.174Z,6.67
2022-10-28T07:53:00.978Z,7.40
2022-10-28T07:55:28.054Z,7.23
2022-10-28T07:57:54.767Z,6.50
2022-10-28T08:00:21.615Z,7.07
2022-10-28T08:02:48.141Z,7.53
2022-10-28T08:05:14.793Z,7.17
2022-10-28T08:07:41.467Z,6.30
2022-10-28T08:10:08.345Z,6.40
2022-10-28T08:12:34.828Z,6.23
2022-10-28T08:15:02.654Z,5.77
2022-10-28T08:17:29.420Z,6.13
2022-10-28T08:19:56.067Z,5.80
2022-10-28T08:22:22.606Z,6.00
2022-10-28T08:24:49.082Z,6.30
2022-10-28T08:27:15.589Z,6.57
2022-10-28T08:29:42.167Z,5.80
2022-10-28T08:32:09.377Z,5.97
2022-10-28T08:34:38.064Z,5.60
2022-10-28T08:37:07.547Z,6.30
2022-10-28T08:39:34.151Z,6.23
2022-10-28T08:42:28.092Z,5.70
2022-10-28T08:44:57.642Z,5.70
2022-10-28T08:47:45.834Z,5.83
2022-10-28T08:50:18.376Z,5.83
2022-10-28T08:52:56.442Z,5.60
2022-10-28T08:55:31.594Z,5.70
2022-10-28T08:58:19.663Z,5.77
2022-10-28T09:00:54.270Z,5.43
2022-10-28T09:03:27.037Z,6.53
2022-10-28T09:06:04.791Z,5.20
2022-10-28T09:08:36.416Z,5.73
2022-10-28T09:11:16.446Z,5.40
2022-10-28T09:14:06.277Z,5.63
2022-10-28T09:16:46.003Z,6.20
2022-10-28T09:19:21.677Z,5.80
2022-10-28T09:21:56.813Z,5.10
2022-10-28T09:24:54.043Z,5.07
2022-10-28T09:27:44.386Z,5.03
2022-10-28T09:30:21.305Z,5.73
2022-10-28T09:33:18.610Z,4.90
2022-10-28T09:35:48.061Z,4.87
2022-10-28T09:38:35.565Z,5.47
2022-10-28T09:41:14.269Z,5.40
2022-10-28T09:43:59.790Z,4.80
2022-10-28T09:46:33.236Z,4.63
2022-10-28T09:49:06.320Z,5.10
2022-10-28T09:51:50.431Z,4.27
2022-10-28T09:54:17.979Z,5.20
2022-10-28T09:56:44.477Z,4.80
2022-10-28T09:59:15.849Z,4.50
2022-10-28T10:01:43.965Z,4.90
2022-10-28T10:04:22.621Z,5.00
2022-10-28T10:07:05.892Z,3.73
2022-10-28T10:09:35.790Z,4.43
2022-10-28T10:12:08.946Z,4.10
2022-10-28T10:14:42.466Z,4.73
2022-10-28T10:17:32.043Z,4.13
2022-10-28T10:20:30.776Z,4.63
2022-10-28T10:22:57.488Z,4.37
2022-10-28T10:25:29.967Z,4.83
2022-10-28T10:28:01.303Z,4.30
2022-10-28T10:30:34.923Z,4.33
2022-10-28T10:33:02.952Z,4.63
2022-10-28T10:35:35.243Z,4.70
2022-10-28T10:38:04.860Z,4.50
2022-10-28T10:40:49.447Z,4.50
2022-10-28T10:43:29.252Z,4.40
2022-10-28T10:46:06.043Z,4.33
2022-10-28T10:48:36.334Z,4.33
2022-10-28T10:51:24.959Z,4.40
2022-10-28T10:53:57.743Z,3.90
2022-10-28T10:56:29.752Z,3.97
2022-10-28T10:59:01.534Z,4.00
2022-10-28T11:01:34.350Z,4.07
2022-10-28T11:04:04.344Z,4.93
2022-10-28T11:06:34.341Z,4.53
2022-10-28T11:09:23.435Z,3.70
2022-10-28T11:11:50.401Z,3.80
2022-10-28T11:14:24.766Z,4.17
2022-10-28T11:16:51.217Z,3.90
2022-10-28T11:19:26.661Z,4.03
2022-10-28T11:22:31.605Z,3.90
2022-10-28T11:25:10.398Z,3.50
2022-10-28T11:28:03.109Z,3.97
2022-10-28T11:30:50.868Z,4.43
2022-10-28T11:33:32.101Z,4.40
2022-10-28T11:36:19.440Z,3.80
2022-10-28T11:39:11.463Z,3.80
2022-10-28T11:41:58.298Z,4.13
2022-10-28T11:44:33.712Z,4.20
2022-10-28T11:47:09.050Z,3.87
2022-10-28T11:50:04.273Z,3.90
2022-10-28T11:52:49.807Z,4.37
2022-10-28T11:55:22.748Z,4.30
2022-10-28T11:58:23.971Z,3.87
2022-10-28T12:00:57.751Z,4.07
2022-10-28T12:04:01.256Z,4.57
2022-10-28T12:06:45.806Z,3.63
2022-10-28T12:09:44.902Z,3.73
2022-10-28T12:12:20.177Z,3.60
2022-10-28T12:15:11.373Z,4.17
2022-10-28T12:17:43.612Z,3.80
2022-10-28T12:20:24.486Z,3.80
2022-10-28T12:22:56.209Z,3.73
2022-10-28T12:25:27.733Z,4.10
2022-10-28T12:28:14.382Z,3.70
2022-10-28T12:30:42.964Z,3.80
2022-10-28T12:33:25.620Z,3.73
2022-10-28T12:36:12.814Z,3.83
2022-10-28T12:38:45.200Z,4.13
2022-10-28T12:41:11.706Z,3.87
2022-10-28T12:43:51.037Z,3.60
2022-10-28T12:46:31.896Z,3.77
2022-10-28T12:49:05.504Z,3.77
2022-10-28T12:51:38.696Z,4.10
2022-10-28T12:54:15.019Z,3.67
2022-10-28T12:56:50.640Z,4.37
2022-10-28T12:59:39.015Z,4.10
2022-10-28T13:02:20.017Z,3.90
2022-10-28T13:04:46.884Z,3.70
2022-10-28T13:07:45.278Z,4.17
2022-10-28T13:10:32.574Z,4.00
2022-10-28T13:13:18.849Z,4.10
2022-10-28T13:16:00.378Z,4.20
2022-10-28T13:18:59.333Z,4.50
2022-10-28T13:21:44.217Z,4.30
2022-10-28T13:24:21.217Z,3.77
2022-10-28T13:26:48.330Z,4.33
2022-10-28T13:29:24.457Z,4.10
2022-10-28T13:31:52.382Z,4.10
2022-10-28T13:34:21.597Z,4.40
2022-10-28T13:36:59.872Z,4.07
2022-10-28T13:39:42.830Z,4.00
2022-10-28T13:42:23.312Z,4.10
2022-10-28T13:44:55.453Z,4.13
2022-10-28T13:47:30.584Z,4.20
2022-10-28T13:50:09.438Z,4.40
2022-10-28T13:52:41.066Z,4.90
2022-10-28T13:55:42.133Z,4.40
2022-10-28T13:58:22.345Z,4.53
2022-10-28T14:00:52.208Z,4.50
2022-10-28T14:03:24.284Z,4.53
2022-10-28T14:05:54.443Z,4.43
2022-10-28T14:08:33.095Z,4.30
2022-10-28T14:11:08.360Z,4.40
2022-10-28T14:13:39.711Z,4.30
2022-10-28T14:16:21.691Z,4.17
2022-10-28T14:18:58.005Z,4.17
2022-10-28T14:21:24.793Z,3.90
2022-10-28T14:24:08.818Z,4.23
2022-10-28T14:27:06.463Z,4.27
2022-10-28T14:30:04.067Z,4.37
2022-10-28T14:32:33.480Z,4.37
2022-10-28T14:35:04.488Z,4.60
2022-10-28T14:37:50.168Z,4.47
2022-10-28T14:40:42.841Z,4.10
2022-10-28T14:43:43.262Z,4.30
2022-10-28T14:46:37.789Z,4.73
2022-10-28T14:49:34.236Z,4.40
2022-10-28T14:52:12.210Z,4.60
2022-10-28T14:54:52.394Z,4.70
2022-10-28T14:57:22.763Z,4.40
2022-10-28T14:59:51.554Z,4.67
2022-10-28T15:02:22.107Z,4.77
2022-10-28T15:05:01.532Z,4.63
2022-10-28T15:07:28.205Z,4.33
2022-10-28T15:09:56.367Z,4.17
2022-10-28T15:12:26.209Z,5.03
2022-10-28T15:14:55.908Z,4.33
2022-10-28T15:17:24.191Z,4.93
2022-10-28T15:19:53.910Z,4.67
2022-10-28T15:22:33.488Z,4.67
2022-10-28T15:25:02.576Z,4.27
2022-10-28T15:27:32.837Z,4.80
2022-10-28T15:29:59.938Z,5.30
2022-10-28T15:32:35.293Z,4.97
2022-10-28T15:35:27.860Z,4.93
2022-10-28T15:37:55.378Z,4.90
2022-10-28T15:40:31.870Z,4.97
2022-10-28T15:43:06.932Z,4.80
2022-10-28T15:45:41.308Z,5.00
2022-10-28T15:48:14.607Z,5.00
2022-10-28T15:50:41.760Z,4.73
2022-10-28T15:53:11.060Z,5.20
2022-10-28T15:58:41.193Z,4.97
2022-10-28T16:01:26.505Z,5.30
2022-10-28T16:03:53.279Z,5.07
2022-10-28T16:06:27.644Z,4.77
2022-10-28T16:09:14.010Z,5.57
2022-10-28T16:11:43.756Z,5.07
2022-10-28T16:14:36.188Z,4.97
2022-10-28T16:17:13.813Z,4.93
2022-10-28T16:19:45.427Z,4.70
2022-10-28T16:22:14.143Z,4.50
2022-10-28T16:24:41.382Z,5.93
2022-10-28T16:27:23.502Z,5.70
2022-10-28T16:29:50.758Z,5.17
2022-10-28T16:32:23.608Z,5.63
2022-10-28T16:34:50.130Z,5.40
2022-10-28T16:37:22.836Z,5.40
2022-10-28T16:39:49.845Z,6.23
2022-10-28T16:42:17.518Z,5.80
2022-10-28T16:44:44.177Z,5.87
2022-10-28T16:47:16.442Z,5.40
2022-10-28T16:49:43.560Z,5.47
2022-10-28T16:52:16.862Z,6.20
2022-10-28T16:54:43.427Z,5.80
2022-10-28T16:57:10.014Z,5.60
2022-10-28T16:59:36.602Z,5.50
2022-10-28T17:02:03.318Z,5.80
2022-10-28T17:04:29.855Z,5.87
2022-10-28T17:06:56.471Z,5.67
2022-10-28T17:09:23.060Z,5.20
2022-10-28T17:11:49.566Z,6.00
2022-10-28T17:14:16.049Z,5.50
2022-10-28T17:16:43.495Z,5.50
2022-10-28T17:19:10.158Z,5.73
2022-10-28T17:21:36.677Z,6.17
2022-10-28T17:24:04.407Z,5.20
2022-10-28T17:26:30.919Z,5.63
2022-10-28T17:28:57.490Z,5.57
2022-10-28T17:31:25.383Z,5.93
2022-10-28T17:33:55.577Z,6.47
2022-10-28T17:36:23.274Z,6.97
2022-10-28T17:38:49.950Z,6.33
2022-10-28T17:41:16.509Z,6.80
2022-10-28T17:43:43.029Z,7.17
2022-10-28T17:46:09.986Z,5.93
2022-10-28T17:48:36.543Z,6.17
2022-10-28T17:51:03.164Z,6.23
2022-10-28T17:53:29.635Z,5.70
2022-10-28T17:56:00.588Z,6.30
2022-10-28T17:58:27.705Z,5.73
2022-10-28T18:00:58.523Z,6.53
2022-10-28T18:03:26.101Z,5.80
2022-10-28T18:05:53.086Z,5.83
2022-10-28T18:08:20.794Z,6.37
2022-10-28T18:10:54.934Z,12.73
2022-10-28T18:13:30.106Z,10.60
2022-10-28T18:16:03.028Z,9.50
2022-10-28T18:18:29.479Z,7.57
2022-10-28T18:20:56.479Z,7.47
2022-10-28T18:23:23.644Z,7.00
2022-10-28T18:26:04.208Z,7.10
2022-10-28T18:28:32.194Z,8.40
2022-10-28T18:31:03.720Z,7.50
2022-10-28T18:33:30.625Z,6.57
2022-10-28T18:36:06.114Z,6.67
2022-10-28T18:38:33.715Z,7.10
2022-10-28T18:41:00.218Z,7.03
2022-10-28T18:43:27.405Z,7.03
2022-10-28T18:45:54.483Z,7.50
2022-10-28T18:48:20.988Z,6.90
2022-10-28T18:50:58.220Z,6.80
2022-10-28T18:53:25.523Z,7.63
2022-10-28T18:55:52.124Z,7.27
2022-10-28T18:58:18.918Z,13.57
2022-10-28T19:00:45.527Z,8.67
2022-10-28T19:03:20.358Z,7.73
2022-10-28T19:05:47.330Z,7.80
2022-10-28T19:08:14.146Z,8.03
2022-10-28T19:10:41.257Z,8.40
2022-10-28T19:13:07.844Z,8.53
2022-10-28T19:15:40.143Z,8.70
2022-10-28T19:18:06.701Z,8.70
2022-10-28T19:20:33.410Z,7.60
2022-10-28T19:23:01.832Z,8.93
2022-10-28T19:25:28.477Z,9.33
2022-10-28T19:27:55.044Z,9.00
2022-10-28T19:30:21.627Z,10.13
2022-10-28T19:32:48.194Z,8.27
2022-10-28T19:35:14.711Z,9.20
2022-10-28T19:37:41.197Z,8.27
2022-10-28T19:40:08.653Z,9.13
2022-10-28T19:42:35.277Z,8.60
2022-10-28T19:45:03.980Z,9.13
2022-10-28T19:47:31.089Z,8.73
2022-10-28T19:49:58.579Z,9.30
2022-10-28T19:52:25.259Z,9.90
2022-10-28T19:54:51.811Z,8.80
2022-10-28T19:57:18.528Z,8.87
2022-10-28T19:59:45.017Z,8.93
2022-10-28T20:02:11.837Z,9.73
2022-10-28T20:04:39.417Z,9.30
2022-10-28T20:07:06.114Z,9.77
2022-10-28T20:09:32.595Z,9.30
2022-10-28T20:11:59.104Z,9.67
2022-10-28T20:14:25.595Z,10.33
2022-10-28T20:16:52.113Z,9.97
2022-10-28T20:19:18.599Z,9.53
2022-10-28T20:21:45.217Z,9.90
2022-10-28T20:24:11.757Z,9.73
2022-10-28T20:26:38.687Z,10.27
2022-10-28T20:29:06.932Z,9.27
2022-10-28T20:31:33.782Z,8.50
2022-10-28T20:34:03.897Z,9.67
2022-10-28T20:36:31.681Z,9.83
2022-10-28T20:39:00.591Z,10.23
2022-10-28T20:41:30.158Z,10.40
2022-10-28T20:43:56.955Z,10.57
2022-10-28T20:46:24.630Z,9.60
2022-10-28T20:48:54.468Z,10.83
2022-10-28T20:51:22.053Z,10.10
2022-10-28T20:53:48.634Z,10.37
2022-10-28T20:56:36.703Z,9.73
2022-10-28T20:59:04.182Z,10.10
2022-10-28T21:01:33.572Z,8.47
2022-10-28T21:04:03.000Z,9.80
2022-10-28T21:06:30.653Z,9.70
2022-10-28T21:08:58.453Z,9.73
2022-10-28T21:11:26.655Z,9.30
2022-10-28T21:13:58.340Z,8.33
2022-10-28T21:16:26.316Z,9.43
2022-10-28T21:18:54.248Z,9.10
2022-10-28T21:21:23.028Z,9.60
2022-10-28T21:23:49.794Z,9.47
2022-10-28T21:26:16.690Z,9.67
2022-10-28T21:28:43.512Z,9.20
2022-10-28T21:31:13.184Z,9.63
2022-10-28T21:33:41.185Z,9.87
2022-10-28T21:36:11.020Z,9.00
2022-10-28T21:38:37.563Z,9.97
2022-10-28T21:41:10.886Z,9.93
2022-10-28T21:43:40.007Z,9.13
2022-10-28T21:46:06.678Z,9.33
2022-10-28T21:48:35.515Z,9.63
2022-10-28T21:51:07.330Z,9.87
2022-10-28T21:53:38.135Z,9.03
2022-10-28T21:56:18.051Z,9.73
2022-10-28T21:58:46.272Z,9.10
2022-10-28T22:01:15.943Z,9.50
2022-10-28T22:03:42.743Z,9.37
2022-10-28T22:06:09.397Z,8.93
2022-10-28T22:08:36.087Z,9.63
2022-10-28T22:11:07.184Z,9.37
2022-10-28T22:13:34.402Z,9.70
2022-10-28T22:16:07.119Z,9.60
2022-10-28T22:18:35.739Z,9.43
2022-10-28T22:21:08.952Z,8.37
2022-10-28T22:23:36.768Z,8.43
2022-10-28T22:26:09.018Z,8.53
2022-10-28T22:28:35.609Z,8.40
2022-10-28T22:31:04.508Z,9.20
2022-10-28T22:33:31.124Z,8.47
2022-10-28T22:35:59.280Z,8.93
2022-10-28T22:38:26.478Z,9.37
2022-10-28T22:41:02.777Z,8.57
2022-10-28T22:43:29.373Z,9.10
2022-10-28T22:45:57.285Z,8.90
2022-10-28T22:48:24.341Z,9.33
2022-10-28T22:50:51.336Z,8.80
2022-10-28T22:53:18.366Z,8.13
2022-10-28T22:55:45.106Z,8.40
2022-10-28T22:58:11.646Z,7.53
2022-10-28T23:00:38.123Z,8.90
2022-10-28T23:03:04.700Z,8.27
2022-10-28T23:05:31.225Z,8.23
2022-10-28T23:08:00.206Z,8.73
2022-10-28T23:10:27.767Z,8.17
2022-10-28T23:13:01.980Z,9.03
2022-10-28T23:15:29.753Z,7.93
2022-10-28T23:17:56.754Z,7.33
2022-10-28T23:20:25.075Z,6.80
2022-10-28T23:22:55.320Z,8.10
2022-10-28T23:25:21.934Z,7.77
2022-10-28T23:27:48.432Z,7.90
2022-10-28T23:30:15.013Z,8.37
2022-10-28T23:32:41.517Z,7.40
2022-10-28T23:35:08.144Z,7.70
2022-10-28T23:37:34.638Z,7.60
2022-10-28T23:40:01.231Z,7.53
2022-10-28T23:42:27.936Z,7.07
2022-10-28T23:44:54.445Z,7.50
2022-10-28T23:47:20.942Z,6.87
2022-10-28T23:49:47.451Z,7.13
2022-10-28T23:52:13.998Z,7.57
2022-10-28T23:54:40.488Z,6.83
2022-10-28T23:57:08.394Z,7.00
2022-10-28T23:59:35.051Z,6.83
